Terminal Aerodrome Forecast
Issued by NWS

Home | Current Version | Previous Version | Graphics & Text | Print | Product List | Glossary On
Versions: 1 2 3 4 5 6 7 8 9 10 11 12 13 14 15 16 17 18 19
000
FTUS42 KMHX 201100 RRA
TAFPGV
TAF
KPGV 201141Z 2012/2112 VRB03KT P6SM SCT040
     FM201800 18004KT P6SM VCSH SCT050 BKN120
     FM210700 00000KT 3SM BR SCT007
      AMD LTD TO CLD VIS AND WIND=

USA.gov is the U.S. government's official web portal to all federal, state and local government web resources and services.